Time;durP1;ratioP1;P1;durP2;ratioP2;P2;SDS_P1;SDS_P2;PMS_P1;PMS_P2;Temp;Humidity;BMP_temperature;BMP_pressure;BME280_temperature;BME280_humidity;BME280_pressure;Samples;Min_cycle;Max_cycle;Signal;HPM_P1;HPM_P2
2022/12/27 00:01:12;;;;;;;10.85;1.25;;;;;;;-144.47;76.36;53011.00;4984868;28;20459;-71
2022/12/27 00:03:39;;;;;;;7.32;1.58;;;;;;;-144.47;76.13;53009.03;4985395;28;20047;-73
2022/12/27 00:06:10;;;;;;;15.20;1.77;;;;;;;-144.47;76.83;52997.09;4988284;28;20026;-76
2022/12/27 00:08:36;;;;;;;9.60;1.67;;;;;;;-144.47;76.03;53015.00;4983916;28;20022;-72
2022/12/27 00:11:13;;;;;;;11.13;1.77;;;;;;;-144.47;76.80;52991.16;4978944;28;20261;-73
2022/12/27 00:13:38;;;;;;;6.38;1.17;;;;;;;-144.47;77.38;52991.16;4979268;28;20150;-71
2022/12/27 00:16:05;;;;;;;5.22;1.23;;;;;;;-144.47;77.29;52997.09;4988339;28;20097;-75
2022/12/27 00:18:31;;;;;;;7.60;1.67;;;;;;;-144.47;77.33;52997.09;4987794;28;20029;-71
2022/12/27 00:20:58;;;;;;;8.95;1.83;;;;;;;-144.47;78.14;53024.91;4972889;28;20022;-76
2022/12/27 00:23:24;;;;;;;7.05;1.33;;;;;;;-144.47;78.20;52989.16;4988332;28;20026;-72
2022/12/27 00:25:49;;;;;;;6.90;1.95;;;;;;;-144.47;78.69;53028.88;4978794;28;20164;-73
2022/12/27 00:28:14;;;;;;;4.15;1.27;;;;;;;-144.47;78.74;53028.88;4979354;28;20015;-72
2022/12/27 00:30:40;;;;;;;11.43;1.80;;;;;;;-144.47;79.39;53003.06;4982624;28;20519;-70
2022/12/27 00:33:05;;;;;;;7.82;1.65;;;;;;;-144.47;79.64;53011.00;4988587;28;20030;-72
2022/12/27 00:35:31;;;;;;;10.88;1.60;;;;;;;-144.47;80.44;53016.97;4988244;28;20509;-69
2022/12/27 00:37:56;;;;;;;5.88;1.27;;;;;;;-144.47;81.04;53030.88;4987922;28;20426;-72
2022/12/27 00:40:22;;;;;;;9.60;1.42;;;;;;;-144.47;81.98;53022.94;4988877;28;20025;-71
2022/12/27 00:42:47;;;;;;;4.43;1.10;;;;;;;-144.47;82.69;53022.94;4988593;28;20053;-69
2022/12/27 00:45:12;;;;;;;5.13;1.15;;;;;;;-144.47;83.01;53028.88;4987587;28;20031;-73
2022/12/27 00:47:39;;;;;;;8.48;1.33;;;;;;;-144.47;83.86;53042.78;4988190;28;20064;-72
2022/12/27 00:50:05;;;;;;;4.78;1.05;;;;;;;-144.47;84.63;53011.00;4985872;28;20535;-73
2022/12/27 00:52:30;;;;;;;12.27;1.55;;;;;;;-144.47;85.01;52993.13;4970272;28;20031;-71
2022/12/27 00:54:55;;;;;;;3.47;1.10;;;;;;;-144.47;85.54;53030.88;4988232;28;20029;-73
2022/12/27 00:57:21;;;;;;;6.28;1.10;;;;;;;-144.47;85.67;53034.84;4987727;28;20038;-72
2022/12/27 00:59:46;;;;;;;3.83;1.27;;;;;;;-144.47;85.31;53032.88;4971188;28;20026;-71
2022/12/27 01:02:12;;;;;;;6.63;1.83;;;;;;;-144.47;84.84;53015.00;4975728;28;20037;-73
2022/12/27 01:04:37;;;;;;;4.10;1.58;;;;;;;-144.47;84.18;53018.97;4969817;28;20406;-70
2022/12/27 01:07:02;;;;;;;12.48;2.03;;;;;;;-144.47;83.27;53038.81;4987335;28;20030;-73
2022/12/27 01:09:27;;;;;;;6.07;1.80;;;;;;;-144.47;82.54;53054.72;4983755;28;20034;-73
2022/12/27 01:11:53;;;;;;;4.68;1.58;;;;;;;-144.47;82.38;53030.88;4968586;28;20026;-73
2022/12/27 01:14:18;;;;;;;6.47;1.42;;;;;;;-144.47;81.82;53052.72;4988253;28;20475;-70
2022/12/27 01:16:44;;;;;;;4.72;1.65;;;;;;;-144.47;81.62;53068.63;4987713;28;20297;-74
2022/12/27 01:19:09;;;;;;;3.67;1.45;;;;;;;-144.47;81.09;53046.75;4988196;28;20080;-71
2022/12/27 01:21:35;;;;;;;6.93;1.80;;;;;;;-144.47;81.20;53034.84;4970069;28;20092;-71
2022/12/27 01:24:00;;;;;;;8.88;1.92;;;;;;;-144.47;81.11;53034.84;4991241;28;20032;-73
2022/12/27 01:26:25;;;;;;;5.30;1.52;;;;;;;-144.47;80.98;53038.81;4980659;28;20106;-68
2022/12/27 01:28:52;;;;;;;8.35;1.70;;;;;;;-144.47;80.49;53048.75;4974458;28;20104;-73
2022/12/27 01:31:21;;;;;;;11.75;1.77;;;;;;;-144.47;80.48;53026.91;4981070;28;20018;-72
2022/12/27 01:33:47;;;;;;;9.20;1.67;;;;;;;-144.47;80.03;53034.84;4986831;28;20484;-70
2022/12/27 01:36:19;;;;;;;12.32;2.13;;;;;;;-144.47;79.72;53036.84;4987684;28;20029;-71
2022/12/27 01:38:49;;;;;;;12.15;1.90;;;;;;;-144.47;80.63;53062.66;4989819;28;20338;-73
2022/12/27 01:44:49;;;;;;;;;;;;;;;;;;;;;
2022/12/27 01:47:30;;;;;;;6.47;1.80;;;;;;;-144.47;81.08;53066.63;4979327;28;20041;-70
2022/12/27 01:50:13;;;;;;;7.18;1.75;;;;;;;-144.47;81.18;53062.66;4961650;28;20447;-73
2022/12/27 01:53:10;;;;;;;5.78;2.40;;;;;;;-144.47;80.58;53046.75;4990528;28;20519;-72
2022/12/27 01:55:47;;;;;;;4.85;1.58;;;;;;;-144.47;80.48;53060.66;4989933;28;20102;-71
2022/12/27 01:58:43;;;;;;;4.50;1.67;;;;;;;-144.47;79.89;53054.72;4989691;28;20399;-72
2022/12/27 02:01:22;;;;;;;4.65;1.70;;;;;;;-144.47;79.71;53066.63;4973277;28;20042;-72
2022/12/27 02:03:52;;;;;;;5.13;1.63;;;;;;;-144.47;78.91;53072.59;4990558;28;20026;-74
2022/12/27 02:06:20;;;;;;;10.02;2.10;;;;;;;-144.47;78.50;53028.88;4989393;28;20046;-72
2022/12/27 02:09:13;;;;;;;12.77;2.60;;;;;;;-144.47;78.66;53052.72;4984089;28;20468;-70
2022/12/27 02:11:51;;;;;;;11.10;2.65;;;;;;;-144.47;78.09;53054.72;4986063;28;20045;-70
2022/12/27 02:14:33;;;;;;;6.35;1.77;;;;;;;-144.47;77.45;53054.72;4990456;28;20405;-73
2022/12/27 02:17:02;;;;;;;9.15;2.53;;;;;;;-144.47;77.25;53066.63;4989569;28;20615;-74
2022/12/27 02:19:40;;;;;;;8.20;1.48;;;;;;;-144.47;76.92;53042.78;4992849;28;20037;-72
2022/12/27 02:22:14;;;;;;;10.52;1.33;;;;;;;-144.47;76.55;53078.53;4996524;28;20561;-71
2022/12/27 02:24:45;;;;;;;11.50;2.78;;;;;;;-144.47;77.20;53038.81;4997787;28;20041;-74
2022/12/27 02:27:25;;;;;;;9.25;2.22;;;;;;;-144.47;76.83;53040.81;4998750;28;20019;-76
2022/12/27 02:29:57;;;;;;;4.50;1.67;;;;;;;-144.47;77.15;53060.66;4991188;28;20030;-74
2022/12/27 02:32:51;;;;;;;6.45;1.80;;;;;;;-144.47;77.48;53052.72;5003284;28;20038;-73
2022/12/27 02:35:30;;;;;;;7.95;2.22;;;;;;;-144.47;77.94;53030.88;5000013;28;20125;-76
2022/12/27 02:38:33;;;;;;;8.32;2.35;;;;;;;-144.47;77.66;53038.81;4977560;28;20433;-72
2022/12/27 02:55:34;;;;;;;7.55;1.85;;;;;;;-144.47;77.62;53066.63;4979728;28;20065;-73
2022/12/27 02:58:14;;;;;;;2.35;1.00;;;;;;;-144.47;77.45;53062.66;4988468;28;20026;-71
2022/12/27 03:03:31;;;;;;;2.33;1.45;;;;;;;-144.47;76.73;53082.53;4975852;28;20464;-72
2022/12/27 03:15:53;;;;;;;4.88;1.60;;;;;;;-144.47;76.49;53072.59;4983473;28;20498;-72
2022/12/27 03:17:54;;;;;;;4.75;1.45;;;;;;;-144.47;75.62;53042.78;4976985;28;20181;-73
2022/12/27 03:25:54;;;;;;;11.80;1.92;;;;;;;-144.47;75.17;53070.59;4983522;28;20033;-73
2022/12/27 03:34:30;;;;;;;5.28;1.60;;;;;;;-144.47;75.46;53066.63;4989928;28;20037;-72
2022/12/27 03:39:53;;;;;;;2.30;1.00;;;;;;;-144.47;75.82;53100.41;4989481;28;20173;-72
2022/12/27 03:45:09;;;;;;;9.30;1.50;;;;;;;-144.47;75.92;53082.53;4989579;28;20041;-74
2022/12/27 03:47:54;;;;;;;2.90;1.30;;;;;;;-144.47;75.87;53050.75;4988022;28;20026;-71
2022/12/27 03:50:34;;;;;;;2.90;1.13;;;;;;;-144.47;76.53;53088.47;4988898;28;20109;-70
2022/12/27 03:53:13;;;;;;;6.75;1.13;;;;;;;-144.47;77.10;53062.66;5003165;22;20042;-68
2022/12/27 03:55:41;;;;;;;;;;;;;;;-144.47;77.01;53066.63;4974239;28;20084;-70
2022/12/27 03:58:07;;;;;;;4.43;1.17;;;;;;;-144.47;76.71;53086.50;4988271;28;19905;-68
2022/12/27 04:00:32;;;;;;;10.48;1.92;;;;;;;-144.47;77.15;53060.66;4990170;28;20092;-68
2022/12/27 04:02:58;;;;;;;2.58;1.10;;;;;;;-144.47;77.35;53100.41;4990779;28;20078;-70
2022/12/27 04:05:23;;;;;;;2.70;1.05;;;;;;;-144.47;77.40;53090.47;4989021;28;20125;-69
2022/12/27 04:35:09;;;;;;;5.45;1.02;;;;;;;-144.47;75.93;53088.47;4988583;28;20494;-70
2022/12/27 04:37:34;;;;;;;4.25;1.20;;;;;;;-144.47;75.78;53066.63;4989387;28;20014;-68
2022/12/27 04:56:27;;;;;;;5.60;1.10;;;;;;;-144.47;76.25;53048.75;4991844;28;20403;-70
2022/12/27 05:04:20;;;;;;;9.95;1.63;;;;;;;-144.47;76.28;53084.50;4989863;28;20104;-69
2022/12/27 05:06:46;;;;;;;3.40;0.88;;;;;;;-144.47;76.41;53072.59;4988685;28;20415;-67
2022/12/27 05:14:43;;;;;;;4.68;1.00;;;;;;;-144.47;76.55;53054.72;4974004;28;20508;-68
2022/12/27 05:17:09;;;;;;;11.57;1.80;;;;;;;-144.47;76.94;53062.66;4993045;28;20058;-66
2022/12/27 05:19:34;;;;;;;6.45;1.10;;;;;;;-144.47;76.80;53046.75;4992920;28;20075;-66
2022/12/27 05:27:28;;;;;;;7.95;1.15;;;;;;;-144.47;76.73;53068.63;4992267;28;20179;-68
2022/12/27 05:29:53;;;;;;;5.43;1.20;;;;;;;-144.47;77.10;53074.56;4993711;28;20507;-69
2022/12/27 05:32:18;;;;;;;3.22;1.42;;;;;;;-144.47;77.42;53054.72;4993451;28;20041;-68
2022/12/27 05:34:44;;;;;;;3.25;1.05;;;;;;;-144.47;77.82;53060.66;4974742;28;20026;-69
2022/12/27 05:37:09;;;;;;;10.88;1.10;;;;;;;-144.47;77.67;53080.53;4978274;28;20034;-69
2022/12/27 05:39:35;;;;;;;5.82;1.55;;;;;;;-144.47;77.52;53062.66;4992844;28;20030;-67
2022/12/27 05:42:00;;;;;;;6.35;2.08;;;;;;;-144.47;77.35;53090.47;4992796;28;20033;-68
2022/12/27 05:44:26;;;;;;;5.13;1.73;;;;;;;-144.47;77.71;53076.56;4993022;28;20032;-69
2022/12/27 05:46:53;;;;;;;7.53;1.25;;;;;;;-144.47;77.97;53074.56;4992070;28;20034;-69
2022/12/27 05:49:18;;;;;;;7.60;1.30;;;;;;;-144.47;78.15;53096.41;4990678;28;20023;-67
2022/12/27 05:51:44;;;;;;;7.10;1.35;;;;;;;-144.47;77.65;53056.69;4992054;28;20033;-68
2022/12/27 05:54:09;;;;;;;2.45;0.75;;;;;;;-144.47;78.04;53040.81;4991852;28;20033;-69
2022/12/27 05:56:36;;;;;;;4.00;1.00;;;;;;;-144.47;78.13;53054.72;4992100;28;20018;-71
2022/12/27 05:59:02;;;;;;;14.85;2.28;;;;;;;-144.47;78.09;53090.47;4992930;28;20022;-70
2022/12/27 06:01:28;;;;;;;6.72;1.38;;;;;;;-144.47;77.87;53080.53;4992692;28;20088;-68
2022/12/27 06:03:53;;;;;;;4.50;0.90;;;;;;;-144.47;77.86;53078.53;4992315;28;20022;-70
2022/12/27 06:06:18;;;;;;;20.92;1.63;;;;;;;-144.47;77.95;53052.72;4991632;28;20235;-68
2022/12/27 06:08:44;;;;;;;2.70;1.13;;;;;;;-144.47;78.32;53064.66;4999572;28;20052;-68
2022/12/27 06:11:15;;;;;;;7.40;1.30;;;;;;;-144.47;78.55;53094.44;5001121;28;20029;-67
2022/12/27 06:13:42;;;;;;;5.43;1.40;;;;;;;-144.47;78.65;53080.53;4992953;28;20019;-70
2022/12/27 06:16:10;;;;;;;6.20;1.70;;;;;;;-144.47;78.56;53086.50;4992520;28;20129;-67
2022/12/27 06:18:37;;;;;;;6.43;1.38;;;;;;;-144.47;78.16;53060.66;4991281;28;20404;-66
2022/12/27 06:21:05;;;;;;;5.57;1.15;;;;;;;-144.47;78.07;53070.59;4992675;28;20058;-68
2022/12/27 06:23:33;;;;;;;7.27;1.57;;;;;;;-144.47;78.30;53086.50;4991297;28;20036;-71
2022/12/27 06:25:58;;;;;;;14.57;1.30;;;;;;;-144.47;78.19;53046.75;4991356;28;20877;-70
2022/12/27 06:28:23;;;;;;;3.00;1.13;;;;;;;-144.47;78.69;53048.75;4988412;28;20018;-67
2022/12/27 06:30:49;;;;;;;7.95;1.33;;;;;;;-144.47;79.01;53078.53;4992096;28;20130;-69
2022/12/27 06:33:15;;;;;;;2.08;1.02;;;;;;;-144.47;78.94;53072.59;4991927;28;20101;-68
2022/12/27 06:35:40;;;;;;;9.07;1.70;;;;;;;-144.47;78.92;53052.72;4992033;28;20013;-70
2022/12/27 06:38:06;;;;;;;3.50;1.20;;;;;;;-144.47;78.77;53080.53;4991143;28;20026;-69
2022/12/27 06:40:31;;;;;;;4.63;1.33;;;;;;;-144.47;78.88;53078.53;4992065;28;20380;-68
2022/12/27 06:42:56;;;;;;;5.47;1.30;;;;;;;-144.47;78.92;53064.66;4986817;28;20108;-69
2022/12/27 06:45:22;;;;;;;4.20;1.35;;;;;;;-144.47;79.41;53064.66;4996851;28;20061;-69
2022/12/27 06:47:47;;;;;;;8.13;1.85;;;;;;;-144.47;79.21;53070.59;4994951;28;20029;-70
2022/12/27 06:50:13;;;;;;;3.40;1.60;;;;;;;-144.47;79.26;53082.53;4991080;28;20502;-67
2022/12/27 06:52:38;;;;;;;4.55;1.30;;;;;;;-144.47;79.16;53064.66;4991633;28;20033;-70
2022/12/27 06:55:03;;;;;;;5.38;1.83;;;;;;;-144.47;79.51;53064.66;4991588;28;20507;-69
2022/12/27 06:57:29;;;;;;;3.47;1.48;;;;;;;-144.47;79.51;53048.75;4991071;28;20018;-69
2022/12/27 06:59:54;;;;;;;5.93;1.40;;;;;;;-144.47;79.74;53052.72;4991670;28;20061;-70
2022/12/27 07:02:20;;;;;;;6.22;1.42;;;;;;;-144.47;79.77;53076.56;4991817;28;20029;-69
2022/12/27 07:04:45;;;;;;;8.27;1.50;;;;;;;-144.47;79.49;53044.78;4991201;28;20057;-69
2022/12/27 07:07:10;;;;;;;6.07;1.23;;;;;;;-144.47;79.40;53046.75;4991458;28;20022;-71
2022/12/27 07:09:36;;;;;;;3.65;1.33;;;;;;;-144.47;79.39;53058.69;4997203;28;20109;-67
2022/12/27 07:12:01;;;;;;;11.43;1.58;;;;;;;-144.47;79.21;53066.63;4977993;28;20026;-69
2022/12/27 07:14:26;;;;;;;8.25;1.73;;;;;;;-144.47;78.96;53068.63;4991336;28;20104;-71
2022/12/27 07:16:52;;;;;;;6.97;1.65;;;;;;;-144.47;79.21;53070.59;4991569;28;20026;-71
2022/12/27 07:19:17;;;;;;;4.88;1.70;;;;;;;-144.47;78.95;53036.84;4991801;28;20105;-70
2022/12/27 07:21:43;;;;;;;6.40;1.50;;;;;;;-144.47;78.81;53070.59;4991992;28;20604;-69
2022/12/27 07:24:08;;;;;;;7.70;1.60;;;;;;;-144.47;78.46;53062.66;4990941;28;20121;-70
2022/12/27 07:26:33;;;;;;;4.50;1.17;;;;;;;-144.47;78.67;53064.66;4987027;28;20584;-72
2022/12/27 07:29:00;;;;;;;5.15;1.33;;;;;;;-144.47;78.17;53056.69;4991633;28;20026;-70
2022/12/27 07:31:28;;;;;;;7.72;1.58;;;;;;;-144.47;78.02;53064.66;4992076;28;20030;-71
2022/12/27 07:33:54;;;;;;;6.57;1.55;;;;;;;-144.47;77.85;53009.03;4991316;28;20549;-70
2022/12/27 07:36:23;;;;;;;4.20;1.88;;;;;;;-144.47;77.13;53042.78;4991094;28;20026;-71
2022/12/27 07:38:48;;;;;;;10.43;1.83;;;;;;;-144.47;77.21;53054.72;4989780;28;20023;-70
2022/12/27 07:41:14;;;;;;;5.93;1.58;;;;;;;-144.47;77.15;53046.75;4991558;28;20034;-69
2022/12/27 07:43:39;;;;;;;11.70;2.00;;;;;;;-144.47;77.51;53036.84;4973568;28;20061;-70
2022/12/27 07:46:08;;;;;;;6.07;1.85;;;;;;;-144.47;77.06;53062.66;4991605;28;20105;-69
2022/12/27 07:48:34;;;;;;;4.38;1.08;;;;;;;-144.47;76.88;53034.84;4990862;28;20065;-69
2022/12/27 07:51:00;;;;;;;5.88;1.52;;;;;;;-144.47;76.95;53042.78;4991090;28;20503;-69
2022/12/27 07:53:25;;;;;;;9.13;1.67;;;;;;;-144.47;76.82;53040.81;4973238;28;20026;-70
2022/12/27 07:55:52;;;;;;;3.70;1.33;;;;;;;-144.47;76.73;53048.75;4993158;28;20031;-68
2022/12/27 07:58:18;;;;;;;8.18;1.38;;;;;;;-144.47;76.78;53013.00;4975819;28;20022;-70
2022/12/27 08:00:45;;;;;;;8.48;2.33;;;;;;;-144.47;77.03;53034.84;4993023;28;20026;-68
2022/12/27 08:03:13;;;;;;;7.65;1.63;;;;;;;-144.47;77.07;53046.75;5007590;28;20487;-70
2022/12/27 08:05:47;;;;;;;5.25;1.40;;;;;;;-144.47;77.27;53042.78;4990492;28;20106;-68
2022/12/27 08:08:15;;;;;;;5.25;1.92;;;;;;;-144.47;77.35;53050.75;4990896;28;20018;-66
2022/12/27 08:10:41;;;;;;;7.93;1.55;;;;;;;-144.47;77.29;53034.84;4991042;28;20026;-70
2022/12/27 08:13:06;;;;;;;4.25;1.50;;;;;;;-144.47;77.58;53015.00;4990253;28;20084;-69
2022/12/27 08:15:32;;;;;;;3.25;1.35;;;;;;;-144.47;77.67;53032.88;4990869;28;20607;-68
2022/12/27 08:17:57;;;;;;;7.57;1.48;;;;;;;-144.47;77.72;53048.75;4990315;28;20018;-69
2022/12/27 08:20:23;;;;;;;11.35;2.45;;;;;;;-144.47;77.35;53050.75;4989925;28;20471;-67
2022/12/27 08:22:48;;;;;;;6.60;1.45;;;;;;;-144.47;77.12;53034.84;4990939;28;20045;-68
2022/12/27 08:25:13;;;;;;;8.60;1.60;;;;;;;-144.47;77.06;53036.84;4986732;28;20026;-70
2022/12/27 08:27:39;;;;;;;7.20;1.98;;;;;;;-144.47;76.67;53032.88;4989380;28;20014;-68
2022/12/27 08:30:05;;;;;;;6.40;1.98;;;;;;;-144.47;76.43;53048.75;4992921;28;20014;-68
2022/12/27 08:32:30;;;;;;;11.95;1.45;;;;;;;-144.47;75.90;53038.81;4998180;28;20109;-69
2022/12/27 08:34:55;;;;;;;10.55;1.60;;;;;;;-144.47;75.86;53013.00;4989475;28;20030;-69
2022/12/27 08:37:21;;;;;;;7.00;1.40;;;;;;;-144.47;75.14;53026.91;4990795;28;20030;-69
2022/12/27 08:39:46;;;;;;;6.60;1.27;;;;;;;-144.47;75.28;53026.91;4990848;28;20034;-70
2022/12/27 08:42:12;;;;;;;10.35;1.13;;;;;;;-144.47;75.52;53046.75;4991877;28;20464;-66
2022/12/27 08:44:37;;;;;;;8.63;1.95;;;;;;;-144.47;75.18;53003.06;4993459;28;20176;-69
2022/12/27 08:47:03;;;;;;;2.42;1.13;;;;;;;-144.47;75.13;53034.84;4992889;28;20026;-69
2022/12/27 08:49:29;;;;;;;8.90;1.98;;;;;;;-144.47;74.64;53026.91;4995187;28;20029;-69
2022/12/27 08:51:54;;;;;;;5.80;1.40;;;;;;;-144.47;75.04;53030.88;5005138;28;20034;-69
2022/12/27 08:54:20;;;;;;;3.92;1.10;;;;;;;-144.47;74.91;53003.06;4980994;28;20104;-68
2022/12/27 08:56:45;;;;;;;6.78;1.20;;;;;;;-144.47;74.67;52979.22;4999392;28;20356;-69
2022/12/27 08:59:11;;;;;;;7.65;1.67;;;;;;;-144.47;74.63;53028.88;4992477;28;20080;-68
2022/12/27 09:01:36;;;;;;;6.63;1.33;;;;;;;-144.47;74.53;53044.78;5003680;28;20053;-69
2022/12/27 09:04:02;;;;;;;6.95;1.35;;;;;;;-144.47;74.55;53026.91;5000725;28;20022;-71
2022/12/27 09:06:27;;;;;;;7.68;1.38;;;;;;;-144.47;74.44;52999.09;4997039;28;20056;-69
2022/12/27 09:08:54;;;;;;;3.55;1.30;;;;;;;-144.47;74.08;53020.94;5003077;28;20023;-68
2022/12/27 09:11:26;;;;;;;6.78;1.38;;;;;;;-144.47;74.39;53040.81;5002472;28;20072;-71
2022/12/27 09:13:52;;;;;;;6.65;1.50;;;;;;;-144.47;74.48;53005.06;5010103;28;20020;-66
2022/12/27 09:16:23;;;;;;;8.23;1.50;;;;;;;-144.47;74.84;53038.81;5010147;28;20641;-67
2022/12/27 09:18:51;;;;;;;6.75;1.35;;;;;;;-144.47;74.51;53024.91;5006355;28;20051;-71
2022/12/27 09:21:18;;;;;;;5.57;1.30;;;;;;;-144.47;74.56;53003.06;5006453;28;20026;-71
2022/12/27 09:23:44;;;;;;;7.65;1.65;;;;;;;-144.47;74.39;53030.88;5007676;28;20042;-70
2022/12/27 09:26:18;;;;;;;2.65;1.00;;;;;;;-144.47;74.07;53018.97;5003432;28;20029;-70
2022/12/27 09:28:45;;;;;;;8.25;1.33;;;;;;;-144.47;74.31;53018.97;5008183;28;20014;-69
2022/12/27 09:31:12;;;;;;;5.22;1.52;;;;;;;-144.47;74.11;53022.94;4997221;28;20021;-69
2022/12/27 09:33:37;;;;;;;7.35;1.17;;;;;;;-144.47;74.38;53013.00;5006071;28;20564;-72
2022/12/27 09:36:14;;;;;;;4.38;1.30;;;;;;;-144.47;74.21;53007.03;5007403;28;20029;-68
2022/12/27 09:38:41;;;;;;;2.08;0.90;;;;;;;-144.47;73.69;53034.84;4999058;28;20038;-68
2022/12/27 09:41:21;;;;;;;3.38;1.25;;;;;;;-144.47;73.71;53022.94;5008937;28;20188;-68
2022/12/27 09:43:57;;;;;;;9.27;1.60;;;;;;;-144.47;73.82;53005.06;4998945;28;20109;-68
2022/12/27 09:46:54;;;;;;;9.05;1.20;;;;;;;-144.47;73.57;53011.00;4999358;28;20022;-68
2022/12/27 09:49:42;;;;;;;7.45;1.85;;;;;;;-144.47;73.37;53007.03;4973679;28;20115;-70
2022/12/27 09:52:49;;;;;;;6.77;1.60;;;;;;;-144.47;73.32;52985.19;4964059;23;1192206;-68
2022/12/27 09:55:34;;;;;;;4.37;1.77;;;;;;;-144.47;73.17;53003.06;4984860;28;20022;-71
2022/12/27 09:58:32;;;;;;;2.92;1.33;;;;;;;-144.47;73.45;53024.91;5015217;28;20025;-68
2022/12/27 10:00:58;;;;;;;3.17;1.15;;;;;;;-144.47;73.15;53028.88;5012913;28;20108;-70
2022/12/27 10:03:26;;;;;;;5.57;1.38;;;;;;;-144.47;72.77;53007.03;5009254;28;20106;-70
2022/12/27 10:06:18;;;;;;;10.80;2.10;;;;;;;-144.47;73.03;52991.16;5002366;28;20053;-68
2022/12/27 10:08:56;;;;;;;4.20;1.10;;;;;;;-144.47;72.41;52985.19;4998647;28;20018;-69
2022/12/27 10:11:35;;;;;;;6.10;1.27;;;;;;;-144.47;72.52;52991.16;4998283;28;20026;-69
2022/12/27 10:14:11;;;;;;;5.78;1.52;;;;;;;-144.47;72.37;52981.22;4984111;28;20111;-72
2022/12/27 10:17:05;;;;;;;5.50;1.00;;;;;;;-144.47;72.50;52991.16;4983447;28;20069;-69
2022/12/27 10:19:48;;;;;;;9.65;1.20;;;;;;;-144.47;72.68;52997.09;4999231;28;20487;-71
2022/12/27 10:22:23;;;;;;;11.98;1.33;;;;;;;-144.47;72.88;52991.16;5004036;28;20491;-69
2022/12/27 10:24:57;;;;;;;2.10;1.00;;;;;;;-144.47;72.49;53009.03;4987421;28;20417;-69
2022/12/27 10:27:25;;;;;;;3.67;1.30;;;;;;;-144.47;72.03;52979.22;5007483;28;20444;-73
2022/12/27 10:29:53;;;;;;;6.38;1.35;;;;;;;-144.47;72.03;52983.22;5000356;28;20551;-72
2022/12/27 10:32:19;;;;;;;9.25;1.77;;;;;;;-144.47;71.88;53016.97;4961124;28;20052;-70
2022/12/27 10:34:44;;;;;;;2.90;1.25;;;;;;;-144.47;72.20;53011.00;5010986;28;20466;-72
2022/12/27 10:37:15;;;;;;;7.25;2.72;;;;;;;-144.47;72.25;52981.22;4986922;28;20021;-73
2022/12/27 10:39:41;;;;;;;8.73;1.67;;;;;;;-144.47;72.43;52993.13;5000025;28;20085;-73
2022/12/27 10:42:22;;;;;;;6.68;1.33;;;;;;;-144.47;72.39;52995.13;4998199;28;20048;-71
2022/12/27 10:44:47;;;;;;;1.80;1.08;;;;;;;-144.47;72.39;52991.16;5002446;28;20038;-70
2022/12/27 10:47:14;;;;;;;3.65;1.35;;;;;;;-144.47;72.85;53011.00;5014529;28;20415;-70
2022/12/27 10:49:44;;;;;;;8.35;1.67;;;;;;;-144.47;72.94;52997.09;5005667;28;20019;-73
2022/12/27 10:52:19;;;;;;;4.10;1.30;;;;;;;-144.47;73.05;53005.06;4981970;28;20060;-70
2022/12/27 10:54:51;;;;;;;6.72;1.42;;;;;;;-144.47;73.25;53018.97;4981550;28;20551;-72
2022/12/27 10:57:36;;;;;;;3.85;1.30;;;;;;;-144.47;72.62;53003.06;4980895;28;20337;-75
2022/12/27 11:00:18;;;;;;;13.00;1.40;;;;;;;-144.47;73.51;52991.16;5001935;28;20042;-72
2022/12/27 11:02:52;;;;;;;4.43;1.20;;;;;;;-144.47;73.67;53016.97;5003228;28;20095;-73
2022/12/27 11:05:26;;;;;;;3.47;1.42;;;;;;;-144.47;73.64;52991.16;4998488;28;20029;-70
2022/12/27 11:07:52;;;;;;;7.03;1.42;;;;;;;-144.47;73.14;52983.22;5008615;28;20090;-73
2022/12/27 11:10:26;;;;;;;5.72;1.40;;;;;;;-144.47;72.05;52977.25;5006576;28;20075;-68
2022/12/27 11:13:05;;;;;;;4.85;1.40;;;;;;;-144.47;72.59;52989.16;5008354;28;20032;-71
2022/12/27 11:15:43;;;;;;;4.53;1.20;;;;;;;-144.47;72.68;52993.13;5013441;28;20025;-70
2022/12/27 11:18:20;;;;;;;2.70;1.42;;;;;;;-144.47;72.64;52983.22;5015989;28;20025;-75
2022/12/27 11:20:52;;;;;;;8.88;1.58;;;;;;;-144.47;73.18;52991.16;5012067;28;20036;-72
2022/12/27 11:23:20;;;;;;;4.18;1.17;;;;;;;-144.47;73.22;53005.06;4973510;28;20029;-69
2022/12/27 11:25:56;;;;;;;7.75;1.50;;;;;;;-144.47;72.79;52995.13;4980323;28;20463;-68
2022/12/27 11:28:30;;;;;;;6.80;1.50;;;;;;;-144.47;73.19;52991.16;4993023;28;20518;-71
2022/12/27 11:31:02;;;;;;;4.10;1.52;;;;;;;-144.47;72.95;52987.19;4992975;28;20109;-73
2022/12/27 11:33:48;;;;;;;3.72;1.33;;;;;;;-144.47;72.86;52989.16;5010544;28;20125;-68
2022/12/27 11:36:22;;;;;;;6.88;2.03;;;;;;;-144.47;72.90;53009.03;4981639;28;20028;-66
2022/12/27 11:38:49;;;;;;;3.67;1.35;;;;;;;-144.47;72.67;52991.16;5010874;28;20048;-70
2022/12/27 11:41:40;;;;;;;8.27;1.65;;;;;;;-144.47;72.40;52999.09;4996797;28;20104;-68
2022/12/27 11:44:27;;;;;;;10.25;2.13;;;;;;;-144.47;72.42;53013.00;4976670;28;20049;-69
2022/12/27 11:46:59;;;;;;;8.50;1.85;;;;;;;-144.47;72.52;52991.16;5005207;28;20093;-73
2022/12/27 11:49:34;;;;;;;9.20;2.20;;;;;;;-144.47;72.53;53011.00;4990118;28;20105;-73
2022/12/27 11:52:09;;;;;;;5.43;1.80;;;;;;;-144.47;72.89;52989.16;4990892;28;20022;-70
2022/12/27 11:54:43;;;;;;;4.10;1.77;;;;;;;-144.47;72.83;53003.06;4987389;28;20042;-68
2022/12/27 11:57:27;;;;;;;2.25;1.27;;;;;;;-144.47;73.43;52969.31;4993976;28;20370;-72
2022/12/27 12:00:01;;;;;;;7.78;1.77;;;;;;;-144.47;73.15;52969.31;4995852;28;20108;-73
2022/12/27 12:02:30;;;;;;;8.90;2.03;;;;;;;-144.47;73.15;52989.16;5002440;28;20045;-71
2022/12/27 12:05:02;;;;;;;5.72;1.67;;;;;;;-144.47;72.03;52989.16;4990075;28;20022;-71
2022/12/27 12:07:42;;;;;;;6.00;1.60;;;;;;;-144.47;71.89;53009.03;4995985;28;20447;-73
2022/12/27 12:10:26;;;;;;;13.63;1.92;;;;;;;-144.47;72.28;52977.25;5000293;28;20029;-72
2022/12/27 12:13:19;;;;;;;8.18;1.90;;;;;;;-144.47;72.30;52987.19;5002064;28;20022;-68
2022/12/27 12:16:02;;;;;;;9.88;2.22;;;;;;;-144.47;71.75;52987.19;4999155;28;20576;-70
2022/12/27 12:19:06;;;;;;;6.28;1.30;;;;;;;-144.47;71.80;53013.00;4991336;28;20044;-72
2022/12/27 12:22:15;;;;;;;8.55;1.65;;;;;;;-144.47;71.13;52983.22;5001682;28;20019;-67
2022/12/27 12:25:01;;;;;;;5.13;2.20;;;;;;;-144.47;71.11;52973.28;5002734;28;20400;-69
2022/12/27 12:27:48;;;;;;;6.30;1.52;;;;;;;-144.47;70.97;52975.25;4999786;28;20097;-73
2022/12/27 12:30:59;;;;;;;4.60;1.38;;;;;;;-144.47;71.11;52969.31;4993517;28;20018;-69
2022/12/27 12:33:46;;;;;;;4.95;1.40;;;;;;;-144.47;70.33;52951.44;5008982;28;20028;-71
2022/12/27 12:36:37;;;;;;;7.28;1.98;;;;;;;-144.47;70.39;52977.25;5000281;28;20038;-71
2022/12/27 12:39:28;;;;;;;2.63;1.38;;;;;;;-144.47;69.34;53005.06;4976960;28;20455;-72
2022/12/27 12:41:53;;;;;;;6.65;1.60;;;;;;;-144.47;69.17;52965.34;4992436;28;20034;-73
2022/12/27 12:44:43;;;;;;;9.00;2.20;;;;;;;-144.47;69.63;52955.41;4993658;28;20081;-70
2022/12/27 12:47:26;;;;;;;2.90;1.30;;;;;;;-144.47;69.32;52993.13;5005126;28;20447;-71
2022/12/27 12:50:13;;;;;;;10.23;1.92;;;;;;;-144.47;68.78;52963.34;5004877;28;20522;-73
2022/12/27 12:52:49;;;;;;;5.10;1.20;;;;;;;-144.47;68.60;52975.25;5004637;28;20018;-68
2022/12/27 12:55:39;;;;;;;5.47;1.30;;;;;;;-144.47;67.75;52971.28;5010902;28;20026;-73
2022/12/27 12:58:25;;;;;;;7.85;1.80;;;;;;;-144.47;68.05;52959.38;5006620;28;20018;-72
2022/12/27 13:01:11;;;;;;;6.50;1.60;;;;;;;-144.47;68.75;52973.28;4987895;28;20382;-72
2022/12/27 13:03:52;;;;;;;6.70;2.13;;;;;;;-144.47;68.57;52957.38;4972102;28;20053;-70
2022/12/27 13:06:55;;;;;;;14.63;2.55;;;;;;;-144.47;67.63;52969.31;4988918;28;20042;-70
2022/12/27 13:09:36;;;;;;;4.97;1.35;;;;;;;-144.47;66.57;52957.38;5012130;28;20422;-72
2022/12/27 13:12:27;;;;;;;10.63;2.20;;;;;;;-144.47;66.93;52963.34;4998035;28;20029;-72
2022/12/27 13:15:16;;;;;;;10.07;1.90;;;;;;;-144.47;66.46;52969.31;5003938;28;20029;-69
2022/12/27 13:18:10;;;;;;;4.40;1.40;;;;;;;-144.47;65.67;52945.47;4995013;28;20125;-72
2022/12/27 13:21:05;;;;;;;7.97;1.60;;;;;;;-144.47;65.04;52949.44;4988865;28;20500;-73
2022/12/27 13:23:43;;;;;;;5.75;1.45;;;;;;;-144.47;65.07;52947.47;4991179;28;20630;-70
2022/12/27 13:26:17;;;;;;;3.47;1.42;;;;;;;-144.47;64.26;52937.53;4987888;28;20355;-70